Hlavní strana
METAR-TAF:

METAR-TAF

Letiště :

Kemi, Finsko

zeměpisná šířka: 65-47N, zeměpisná délka: 024-35E, výška: 15 m

Aktuální stav počasí

Zpráva byla vytvořena před 20 minutami, v 22:50 UTC
Jižní vítr 6 kt
Teplota 0°C
Vlhkost vzduchu 100%
Tlak 971 hPa
Viditelnost 10 km a více
Zataženo ve výšce 500 ft

METAR: EFKE 172250Z AUTO 19006KT 9999 OVC005 M00/M00 Q0971

Čas: 01:10 (23:10 UTC)

Předpověď počasí

Zpráva byla vytvořena před 5 hodinami a 44 minutami, v 17:26 UTC
Předpověď platná od 17 v 18 UTC do 17 v 21 UTC
Jižní vítr 9 kt
Viditelnost 10 km a více
Skoro jasno ve výšce 400 ft
Dočasný
od 17 v 18 UTC do 17 v 21 UTC
Oblačno až skoro zataženo ve výšce 400 ft

TAF: EFKE 171726Z 1718/1721 19009KT 9999 FEW004 TEMPO 1718/1721 BKN004

Stav a předpovědi počasí z více než 4 000 letišť (zprávy METAR a TAF).

Červené a žluté tečky na mapě představují dostupné meteorologické stanice.

Když kurzor umístíte na tečku, zobrazí se název stanice.

Pak kliknutím zobrazíte stav a předpověď počasí.

Chcete-li změnit mapu, kliknutím na zelené tlačítko se znaménkem +mapu přiblížíte, kliknutím na zelené tlačítko se znaménkem – mapu oddálíte a kliknutím na zelené šipky přejdete na sousední mapy.


METAR-TAF: